sensor_id;sensor_type;location;lat;lon;timestamp;P1;durP1;ratioP1;P2;durP2;ratioP2
20894;SDS011;10607;42.066;24.742;2022-12-29T00:02:02;28.73;;;16.73;;
20894;SDS011;10607;42.066;24.742;2022-12-29T00:04:27;26.50;;;15.73;;
20894;SDS011;10607;42.066;24.742;2022-12-29T00:06:52;27.50;;;15.17;;
20894;SDS011;10607;42.066;24.742;2022-12-29T00:09:19;28.73;;;16.43;;
20894;SDS011;10607;42.066;24.742;2022-12-29T00:11:44;30.90;;;17.03;;
20894;SDS011;10607;42.066;24.742;2022-12-29T00:14:09;28.27;;;16.43;;
20894;SDS011;10607;42.066;24.742;2022-12-29T00:16:53;30.80;;;16.50;;
20894;SDS011;10607;42.066;24.742;2022-12-29T00:19:18;26.20;;;16.77;;
20894;SDS011;10607;42.066;24.742;2022-12-29T00:22:02;29.43;;;17.43;;
20894;SDS011;10607;42.066;24.742;2022-12-29T00:24:46;28.97;;;17.53;;
20894;SDS011;10607;42.066;24.742;2022-12-29T00:27:30;30.00;;;17.43;;
20894;SDS011;10607;42.066;24.742;2022-12-29T00:30:16;32.80;;;17.20;;
20894;SDS011;10607;42.066;24.742;2022-12-29T00:32:59;28.60;;;17.77;;
20894;SDS011;10607;42.066;24.742;2022-12-29T00:36:03;31.90;;;18.37;;
20894;SDS011;10607;42.066;24.742;2022-12-29T00:38:31;31.70;;;19.00;;
20894;SDS011;10607;42.066;24.742;2022-12-29T00:41:14;29.93;;;18.10;;
20894;SDS011;10607;42.066;24.742;2022-12-29T00:43:58;33.27;;;18.27;;
20894;SDS011;10607;42.066;24.742;2022-12-29T00:46:29;29.03;;;17.77;;
20894;SDS011;10607;42.066;24.742;2022-12-29T00:48:55;27.73;;;16.47;;
20894;SDS011;10607;42.066;24.742;2022-12-29T00:51:38;26.57;;;15.83;;
20894;SDS011;10607;42.066;24.742;2022-12-29T00:54:05;27.53;;;15.20;;
20894;SDS011;10607;42.066;24.742;2022-12-29T00:56:30;25.67;;;15.33;;
20894;SDS011;10607;42.066;24.742;2022-12-29T00:58:59;27.67;;;16.00;;
20894;SDS011;10607;42.066;24.742;2022-12-29T01:01:24;26.30;;;16.73;;
20894;SDS011;10607;42.066;24.742;2022-12-29T01:03:49;26.73;;;16.13;;
20894;SDS011;10607;42.066;24.742;2022-12-29T01:06:15;28.47;;;15.57;;
20894;SDS011;10607;42.066;24.742;2022-12-29T01:08:40;28.33;;;16.33;;
20894;SDS011;10607;42.066;24.742;2022-12-29T01:11:06;32.63;;;17.93;;
20894;SDS011;10607;42.066;24.742;2022-12-29T01:13:32;31.97;;;17.17;;
20894;SDS011;10607;42.066;24.742;2022-12-29T01:15:57;31.53;;;18.10;;
20894;SDS011;10607;42.066;24.742;2022-12-29T01:18:23;34.70;;;19.23;;
20894;SDS011;10607;42.066;24.742;2022-12-29T01:20:49;28.40;;;18.57;;
20894;SDS011;10607;42.066;24.742;2022-12-29T01:23:14;30.97;;;18.23;;
20894;SDS011;10607;42.066;24.742;2022-12-29T01:25:40;31.77;;;17.73;;
20894;SDS011;10607;42.066;24.742;2022-12-29T01:28:05;30.43;;;17.80;;
20894;SDS011;10607;42.066;24.742;2022-12-29T01:30:33;29.70;;;16.60;;
20894;SDS011;10607;42.066;24.742;2022-12-29T01:32:58;30.53;;;15.90;;
20894;SDS011;10607;42.066;24.742;2022-12-29T01:35:24;22.60;;;15.10;;
20894;SDS011;10607;42.066;24.742;2022-12-29T01:37:49;26.93;;;15.60;;
20894;SDS011;10607;42.066;24.742;2022-12-29T01:40:14;27.03;;;16.17;;
20894;SDS011;10607;42.066;24.742;2022-12-29T01:42:39;29.80;;;16.33;;
20894;SDS011;10607;42.066;24.742;2022-12-29T01:45:09;31.53;;;16.83;;
20894;SDS011;10607;42.066;24.742;2022-12-29T01:47:38;27.53;;;16.47;;
20894;SDS011;10607;42.066;24.742;2022-12-29T01:50:15;28.27;;;16.60;;
20894;SDS011;10607;42.066;24.742;2022-12-29T01:52:43;23.07;;;15.03;;
20894;SDS011;10607;42.066;24.742;2022-12-29T01:55:11;30.00;;;16.10;;
20894;SDS011;10607;42.066;24.742;2022-12-29T01:57:38;25.80;;;15.70;;
20894;SDS011;10607;42.066;24.742;2022-12-29T02:00:06;24.83;;;16.00;;
20894;SDS011;10607;42.066;24.742;2022-12-29T02:02:33;31.77;;;16.73;;
20894;SDS011;10607;42.066;24.742;2022-12-29T02:04:59;33.70;;;19.57;;
20894;SDS011;10607;42.066;24.742;2022-12-29T02:07:25;31.40;;;18.37;;
20894;SDS011;10607;42.066;24.742;2022-12-29T02:09:52;32.57;;;19.13;;
20894;SDS011;10607;42.066;24.742;2022-12-29T02:12:18;31.67;;;19.17;;
20894;SDS011;10607;42.066;24.742;2022-12-29T02:14:44;31.40;;;18.57;;
20894;SDS011;10607;42.066;24.742;2022-12-29T02:24:52;30.30;;;18.00;;
20894;SDS011;10607;42.066;24.742;2022-12-29T02:30:11;29.37;;;17.03;;
20894;SDS011;10607;42.066;24.742;2022-12-29T02:35:10;26.67;;;15.70;;
20894;SDS011;10607;42.066;24.742;2022-12-29T02:40:09;27.30;;;15.57;;
20894;SDS011;10607;42.066;24.742;2022-12-29T02:42:50;28.17;;;15.40;;
20894;SDS011;10607;42.066;24.742;2022-12-29T02:45:21;25.07;;;15.13;;
20894;SDS011;10607;42.066;24.742;2022-12-29T02:50:37;28.77;;;16.47;;
20894;SDS011;10607;42.066;24.742;2022-12-29T02:53:07;24.77;;;14.47;;
20894;SDS011;10607;42.066;24.742;2022-12-29T02:55:33;25.80;;;15.50;;
20894;SDS011;10607;42.066;24.742;2022-12-29T02:58:13;30.57;;;15.77;;
20894;SDS011;10607;42.066;24.742;2022-12-29T03:00:44;25.20;;;14.30;;
20894;SDS011;10607;42.066;24.742;2022-12-29T03:03:21;24.00;;;14.73;;
20894;SDS011;10607;42.066;24.742;2022-12-29T03:06:05;22.70;;;14.77;;
20894;SDS011;10607;42.066;24.742;2022-12-29T03:08:49;29.90;;;14.80;;
20894;SDS011;10607;42.066;24.742;2022-12-29T03:11:18;23.67;;;14.23;;
20894;SDS011;10607;42.066;24.742;2022-12-29T03:14:05;28.43;;;14.70;;
20894;SDS011;10607;42.066;24.742;2022-12-29T03:16:53;30.07;;;14.77;;
20894;SDS011;10607;42.066;24.742;2022-12-29T03:21:59;25.67;;;14.60;;
20894;SDS011;10607;42.066;24.742;2022-12-29T03:24:45;29.03;;;17.50;;
20894;SDS011;10607;42.066;24.742;2022-12-29T03:27:13;33.43;;;19.20;;
20894;SDS011;10607;42.066;24.742;2022-12-29T03:29:41;28.47;;;16.07;;
20894;SDS011;10607;42.066;24.742;2022-12-29T03:32:07;26.73;;;16.50;;
20894;SDS011;10607;42.066;24.742;2022-12-29T03:34:33;27.07;;;15.20;;
20894;SDS011;10607;42.066;24.742;2022-12-29T03:37:04;27.80;;;16.90;;
20894;SDS011;10607;42.066;24.742;2022-12-29T03:39:31;29.37;;;15.77;;
20894;SDS011;10607;42.066;24.742;2022-12-29T03:42:01;30.27;;;17.23;;
20894;SDS011;10607;42.066;24.742;2022-12-29T03:44:33;34.73;;;19.93;;
20894;SDS011;10607;42.066;24.742;2022-12-29T03:46:58;41.00;;;21.20;;
20894;SDS011;10607;42.066;24.742;2022-12-29T03:49:24;35.20;;;19.50;;
20894;SDS011;10607;42.066;24.742;2022-12-29T03:51:49;32.63;;;19.80;;
20894;SDS011;10607;42.066;24.742;2022-12-29T03:54:14;36.53;;;19.23;;
20894;SDS011;10607;42.066;24.742;2022-12-29T03:56:40;33.63;;;19.10;;
20894;SDS011;10607;42.066;24.742;2022-12-29T03:59:05;35.17;;;19.10;;
20894;SDS011;10607;42.066;24.742;2022-12-29T04:01:30;33.80;;;19.27;;
20894;SDS011;10607;42.066;24.742;2022-12-29T04:03:55;31.33;;;18.23;;
20894;SDS011;10607;42.066;24.742;2022-12-29T04:06:21;28.20;;;17.27;;
20894;SDS011;10607;42.066;24.742;2022-12-29T04:08:46;28.13;;;16.90;;
20894;SDS011;10607;42.066;24.742;2022-12-29T04:11:11;32.43;;;17.53;;
20894;SDS011;10607;42.066;24.742;2022-12-29T04:13:37;37.87;;;20.33;;
20894;SDS011;10607;42.066;24.742;2022-12-29T04:16:05;30.20;;;17.40;;
20894;SDS011;10607;42.066;24.742;2022-12-29T04:18:31;28.93;;;17.40;;
20894;SDS011;10607;42.066;24.742;2022-12-29T04:20:56;30.03;;;16.90;;
20894;SDS011;10607;42.066;24.742;2022-12-29T04:23:29;32.00;;;15.97;;
20894;SDS011;10607;42.066;24.742;2022-12-29T04:25:54;33.37;;;17.97;;
20894;SDS011;10607;42.066;24.742;2022-12-29T04:28:20;43.00;;;20.97;;
20894;SDS011;10607;42.066;24.742;2022-12-29T04:30:45;47.00;;;22.37;;
20894;SDS011;10607;42.066;24.742;2022-12-29T04:33:11;46.10;;;24.33;;
20894;SDS011;10607;42.066;24.742;2022-12-29T04:35:36;46.20;;;23.83;;
20894;SDS011;10607;42.066;24.742;2022-12-29T04:38:02;41.10;;;24.53;;
20894;SDS011;10607;42.066;24.742;2022-12-29T04:40:27;49.40;;;24.13;;
20894;SDS011;10607;42.066;24.742;2022-12-29T04:42:52;44.03;;;23.20;;
20894;SDS011;10607;42.066;24.742;2022-12-29T04:45:18;39.90;;;23.33;;
20894;SDS011;10607;42.066;24.742;2022-12-29T04:47:43;39.93;;;23.53;;
20894;SDS011;10607;42.066;24.742;2022-12-29T04:50:08;41.70;;;22.33;;
20894;SDS011;10607;42.066;24.742;2022-12-29T04:52:34;37.73;;;22.30;;
20894;SDS011;10607;42.066;24.742;2022-12-29T04:54:59;43.10;;;24.60;;
20894;SDS011;10607;42.066;24.742;2022-12-29T04:57:25;41.60;;;22.57;;
20894;SDS011;10607;42.066;24.742;2022-12-29T04:59:50;45.83;;;22.00;;
20894;SDS011;10607;42.066;24.742;2022-12-29T05:02:16;43.73;;;25.13;;
20894;SDS011;10607;42.066;24.742;2022-12-29T05:04:41;39.53;;;22.13;;
20894;SDS011;10607;42.066;24.742;2022-12-29T05:07:06;43.33;;;23.47;;
20894;SDS011;10607;42.066;24.742;2022-12-29T05:09:32;48.67;;;26.30;;
20894;SDS011;10607;42.066;24.742;2022-12-29T05:11:57;41.17;;;24.30;;
20894;SDS011;10607;42.066;24.742;2022-12-29T05:14:22;41.83;;;23.30;;
20894;SDS011;10607;42.066;24.742;2022-12-29T05:16:48;37.80;;;21.27;;
20894;SDS011;10607;42.066;24.742;2022-12-29T05:19:13;40.63;;;23.47;;
20894;SDS011;10607;42.066;24.742;2022-12-29T05:21:38;38.50;;;23.67;;
20894;SDS011;10607;42.066;24.742;2022-12-29T05:24:04;41.43;;;20.97;;
20894;SDS011;10607;42.066;24.742;2022-12-29T05:26:29;38.53;;;22.27;;
20894;SDS011;10607;42.066;24.742;2022-12-29T05:28:54;39.37;;;20.90;;
20894;SDS011;10607;42.066;24.742;2022-12-29T05:31:20;37.33;;;20.53;;
20894;SDS011;10607;42.066;24.742;2022-12-29T05:33:45;34.10;;;18.80;;
20894;SDS011;10607;42.066;24.742;2022-12-29T05:36:10;33.73;;;19.37;;
20894;SDS011;10607;42.066;24.742;2022-12-29T05:38:36;38.73;;;21.03;;
20894;SDS011;10607;42.066;24.742;2022-12-29T05:41:01;41.60;;;21.20;;
20894;SDS011;10607;42.066;24.742;2022-12-29T05:43:26;43.37;;;23.27;;
20894;SDS011;10607;42.066;24.742;2022-12-29T05:45:52;54.40;;;25.23;;
20894;SDS011;10607;42.066;24.742;2022-12-29T05:48:17;40.17;;;19.93;;
20894;SDS011;10607;42.066;24.742;2022-12-29T05:50:42;34.60;;;19.03;;
20894;SDS011;10607;42.066;24.742;2022-12-29T05:53:11;27.83;;;15.23;;
20894;SDS011;10607;42.066;24.742;2022-12-29T05:55:37;25.23;;;13.90;;
20894;SDS011;10607;42.066;24.742;2022-12-29T05:58:02;25.87;;;15.13;;
20894;SDS011;10607;42.066;24.742;2022-12-29T06:00:27;29.90;;;17.30;;
20894;SDS011;10607;42.066;24.742;2022-12-29T06:02:52;31.97;;;18.40;;
20894;SDS011;10607;42.066;24.742;2022-12-29T06:05:18;38.37;;;17.80;;
20894;SDS011;10607;42.066;24.742;2022-12-29T06:07:43;24.00;;;14.77;;
20894;SDS011;10607;42.066;24.742;2022-12-29T06:10:09;27.73;;;14.53;;
20894;SDS011;10607;42.066;24.742;2022-12-29T06:12:35;31.97;;;17.33;;
20894;SDS011;10607;42.066;24.742;2022-12-29T06:15:00;38.60;;;19.87;;
20894;SDS011;10607;42.066;24.742;2022-12-29T06:17:25;53.77;;;23.77;;
20894;SDS011;10607;42.066;24.742;2022-12-29T06:19:51;43.27;;;24.57;;
20894;SDS011;10607;42.066;24.742;2022-12-29T06:22:16;42.20;;;21.10;;
20894;SDS011;10607;42.066;24.742;2022-12-29T06:24:41;28.23;;;16.73;;
20894;SDS011;10607;42.066;24.742;2022-12-29T06:27:06;27.53;;;15.83;;
20894;SDS011;10607;42.066;24.742;2022-12-29T06:29:32;37.30;;;19.50;;
20894;SDS011;10607;42.066;24.742;2022-12-29T06:31:57;35.60;;;22.37;;
20894;SDS011;10607;42.066;24.742;2022-12-29T06:34:23;40.97;;;24.60;;
20894;SDS011;10607;42.066;24.742;2022-12-29T06:36:49;39.67;;;24.37;;
20894;SDS011;10607;42.066;24.742;2022-12-29T06:39:14;43.23;;;26.93;;
20894;SDS011;10607;42.066;24.742;2022-12-29T06:41:39;35.43;;;20.53;;
20894;SDS011;10607;42.066;24.742;2022-12-29T06:44:05;37.40;;;20.33;;
20894;SDS011;10607;42.066;24.742;2022-12-29T06:46:30;23.97;;;14.67;;
20894;SDS011;10607;42.066;24.742;2022-12-29T06:48:55;28.23;;;16.87;;
20894;SDS011;10607;42.066;24.742;2022-12-29T06:51:20;25.23;;;17.05;;
20894;SDS011;10607;42.066;24.742;2022-12-29T06:53:46;34.05;;;17.58;;
20894;SDS011;10607;42.066;24.742;2022-12-29T06:56:11;35.50;;;21.52;;
20894;SDS011;10607;42.066;24.742;2022-12-29T06:58:36;42.45;;;23.85;;
20894;SDS011;10607;42.066;24.742;2022-12-29T07:01:02;35.30;;;21.40;;
20894;SDS011;10607;42.066;24.742;2022-12-29T07:03:27;35.85;;;21.50;;
20894;SDS011;10607;42.066;24.742;2022-12-29T07:05:53;37.00;;;20.65;;
20894;SDS011;10607;42.066;24.742;2022-12-29T07:08:19;33.00;;;21.20;;
20894;SDS011;10607;42.066;24.742;2022-12-29T07:10:45;32.90;;;19.42;;
20894;SDS011;10607;42.066;24.742;2022-12-29T07:13:10;30.88;;;18.60;;
20894;SDS011;10607;42.066;24.742;2022-12-29T07:15:36;30.23;;;18.58;;
20894;SDS011;10607;42.066;24.742;2022-12-29T07:18:01;35.28;;;21.05;;
20894;SDS011;10607;42.066;24.742;2022-12-29T07:20:28;34.00;;;19.77;;
20894;SDS011;10607;42.066;24.742;2022-12-29T07:22:53;37.47;;;20.65;;
20894;SDS011;10607;42.066;24.742;2022-12-29T07:25:18;33.70;;;19.67;;
20894;SDS011;10607;42.066;24.742;2022-12-29T07:27:44;36.00;;;21.52;;
20894;SDS011;10607;42.066;24.742;2022-12-29T07:30:09;36.00;;;19.20;;
20894;SDS011;10607;42.066;24.742;2022-12-29T07:32:35;33.65;;;18.65;;
20894;SDS011;10607;42.066;24.742;2022-12-29T07:35:00;25.27;;;17.30;;
20894;SDS011;10607;42.066;24.742;2022-12-29T07:37:26;24.63;;;17.13;;
20894;SDS011;10607;42.066;24.742;2022-12-29T07:39:51;29.67;;;17.23;;
20894;SDS011;10607;42.066;24.742;2022-12-29T07:42:16;25.02;;;17.83;;
20894;SDS011;10607;42.066;24.742;2022-12-29T07:44:41;29.98;;;18.35;;
20894;SDS011;10607;42.066;24.742;2022-12-29T07:47:07;23.45;;;16.42;;
20894;SDS011;10607;42.066;24.742;2022-12-29T07:49:32;25.65;;;16.73;;
20894;SDS011;10607;42.066;24.742;2022-12-29T07:51:58;25.02;;;15.70;;
20894;SDS011;10607;42.066;24.742;2022-12-29T07:54:23;22.98;;;16.10;;
20894;SDS011;10607;42.066;24.742;2022-12-29T07:56:48;24.95;;;15.55;;
20894;SDS011;10607;42.066;24.742;2022-12-29T07:59:14;24.38;;;14.88;;
20894;SDS011;10607;42.066;24.742;2022-12-29T08:01:39;20.63;;;14.70;;
20894;SDS011;10607;42.066;24.742;2022-12-29T08:04:04;23.42;;;14.88;;
20894;SDS011;10607;42.066;24.742;2022-12-29T08:06:30;23.08;;;16.83;;
20894;SDS011;10607;42.066;24.742;2022-12-29T08:08:56;22.48;;;16.70;;
20894;SDS011;10607;42.066;24.742;2022-12-29T08:11:21;45.58;;;37.72;;
20894;SDS011;10607;42.066;24.742;2022-12-29T08:13:47;28.45;;;17.23;;
20894;SDS011;10607;42.066;24.742;2022-12-29T08:16:12;26.60;;;16.67;;
20894;SDS011;10607;42.066;24.742;2022-12-29T08:18:37;28.20;;;16.52;;
20894;SDS011;10607;42.066;24.742;2022-12-29T08:21:03;34.45;;;16.30;;
20894;SDS011;10607;42.066;24.742;2022-12-29T08:23:28;25.13;;;17.38;;
20894;SDS011;10607;42.066;24.742;2022-12-29T08:26:00;28.80;;;17.10;;
20894;SDS011;10607;42.066;24.742;2022-12-29T08:28:26;26.60;;;17.73;;
20894;SDS011;10607;42.066;24.742;2022-12-29T08:30:51;29.63;;;16.50;;
20894;SDS011;10607;42.066;24.742;2022-12-29T08:33:16;29.75;;;17.38;;
20894;SDS011;10607;42.066;24.742;2022-12-29T08:35:42;24.70;;;17.85;;
20894;SDS011;10607;42.066;24.742;2022-12-29T08:38:07;25.98;;;17.10;;
20894;SDS011;10607;42.066;24.742;2022-12-29T08:40:32;21.60;;;15.85;;
20894;SDS011;10607;42.066;24.742;2022-12-29T08:42:58;29.67;;;16.45;;
20894;SDS011;10607;42.066;24.742;2022-12-29T08:45:23;26.98;;;16.65;;
20894;SDS011;10607;42.066;24.742;2022-12-29T08:47:48;24.88;;;16.23;;
20894;SDS011;10607;42.066;24.742;2022-12-29T08:50:14;30.05;;;17.35;;
20894;SDS011;10607;42.066;24.742;2022-12-29T08:52:39;30.67;;;17.05;;
20894;SDS011;10607;42.066;24.742;2022-12-29T08:55:04;26.15;;;18.25;;
20894;SDS011;10607;42.066;24.742;2022-12-29T08:57:30;29.25;;;18.48;;
20894;SDS011;10607;42.066;24.742;2022-12-29T08:59:55;31.48;;;17.92;;
20894;SDS011;10607;42.066;24.742;2022-12-29T09:02:20;27.80;;;17.65;;
20894;SDS011;10607;42.066;24.742;2022-12-29T09:04:46;29.35;;;18.70;;
20894;SDS011;10607;42.066;24.742;2022-12-29T09:07:11;31.23;;;18.40;;
20894;SDS011;10607;42.066;24.742;2022-12-29T09:09:36;26.63;;;17.75;;
20894;SDS011;10607;42.066;24.742;2022-12-29T09:12:02;29.10;;;17.42;;
20894;SDS011;10607;42.066;24.742;2022-12-29T09:14:27;30.37;;;20.10;;
20894;SDS011;10607;42.066;24.742;2022-12-29T09:16:53;109.05;;;43.15;;
20894;SDS011;10607;42.066;24.742;2022-12-29T09:19:36;34.65;;;24.88;;
20894;SDS011;10607;42.066;24.742;2022-12-29T09:22:02;44.33;;;21.92;;
20894;SDS011;10607;42.066;24.742;2022-12-29T09:24:28;32.67;;;17.15;;
20894;SDS011;10607;42.066;24.742;2022-12-29T09:26:53;25.83;;;17.15;;
20894;SDS011;10607;42.066;24.742;2022-12-29T09:29:18;30.02;;;18.70;;
20894;SDS011;10607;42.066;24.742;2022-12-29T09:31:44;34.03;;;17.42;;
20894;SDS011;10607;42.066;24.742;2022-12-29T09:34:09;29.60;;;19.40;;
20894;SDS011;10607;42.066;24.742;2022-12-29T09:36:34;29.73;;;17.42;;
20894;SDS011;10607;42.066;24.742;2022-12-29T09:38:59;29.30;;;17.63;;
20894;SDS011;10607;42.066;24.742;2022-12-29T09:41:26;30.65;;;16.75;;
20894;SDS011;10607;42.066;24.742;2022-12-29T09:46:27;42.17;;;21.30;;
20894;SDS011;10607;42.066;24.742;2022-12-29T09:49:00;27.42;;;16.88;;
20894;SDS011;10607;42.066;24.742;2022-12-29T09:51:28;31.67;;;19.52;;
20894;SDS011;10607;42.066;24.742;2022-12-29T09:53:58;34.75;;;20.48;;
20894;SDS011;10607;42.066;24.742;2022-12-29T09:56:24;33.25;;;19.33;;
20894;SDS011;10607;42.066;24.742;2022-12-29T09:59:04;26.08;;;17.70;;
20894;SDS011;10607;42.066;24.742;2022-12-29T10:01:34;33.10;;;20.48;;
20894;SDS011;10607;42.066;24.742;2022-12-29T10:04:02;30.73;;;18.00;;
20894;SDS011;10607;42.066;24.742;2022-12-29T10:06:38;25.02;;;16.02;;
20894;SDS011;10607;42.066;24.742;2022-12-29T10:09:19;27.17;;;17.05;;
20894;SDS011;10607;42.066;24.742;2022-12-29T10:24:26;36.92;;;20.83;;
20894;SDS011;10607;42.066;24.742;2022-12-29T10:26:53;35.97;;;20.75;;
20894;SDS011;10607;42.066;24.742;2022-12-29T10:29:19;34.63;;;18.25;;
20894;SDS011;10607;42.066;24.742;2022-12-29T10:31:50;31.90;;;19.23;;
20894;SDS011;10607;42.066;24.742;2022-12-29T10:34:24;29.40;;;19.13;;
20894;SDS011;10607;42.066;24.742;2022-12-29T10:36:53;30.50;;;19.17;;
20894;SDS011;10607;42.066;24.742;2022-12-29T10:39:37;36.60;;;21.88;;
20894;SDS011;10607;42.066;24.742;2022-12-29T10:44:34;28.95;;;18.48;;
20894;SDS011;10607;42.066;24.742;2022-12-29T10:47:01;32.38;;;19.75;;
20894;SDS011;10607;42.066;24.742;2022-12-29T10:49:29;29.08;;;19.15;;
20894;SDS011;10607;42.066;24.742;2022-12-29T10:51:57;37.75;;;19.30;;
20894;SDS011;10607;42.066;24.742;2022-12-29T10:54:25;32.92;;;20.27;;
20894;SDS011;10607;42.066;24.742;2022-12-29T10:56:52;32.13;;;19.92;;
20894;SDS011;10607;42.066;24.742;2022-12-29T10:59:22;35.25;;;19.33;;
20894;SDS011;10607;42.066;24.742;2022-12-29T11:07:11;50.13;;;24.35;;
20894;SDS011;10607;42.066;24.742;2022-12-29T11:09:37;33.17;;;21.17;;
20894;SDS011;10607;42.066;24.742;2022-12-29T11:12:19;30.77;;;20.58;;
20894;SDS011;10607;42.066;24.742;2022-12-29T11:14:45;33.08;;;20.05;;
20894;SDS011;10607;42.066;24.742;2022-12-29T11:17:14;30.38;;;19.40;;
20894;SDS011;10607;42.066;24.742;2022-12-29T11:19:39;39.53;;;21.08;;
20894;SDS011;10607;42.066;24.742;2022-12-29T11:24:49;30.52;;;18.48;;
20894;SDS011;10607;42.066;24.742;2022-12-29T11:29:41;31.50;;;19.30;;
20894;SDS011;10607;42.066;24.742;2022-12-29T11:32:16;29.80;;;19.70;;
20894;SDS011;10607;42.066;24.742;2022-12-29T11:34:42;30.63;;;19.42;;
20894;SDS011;10607;42.066;24.742;2022-12-29T11:37:12;40.35;;;19.23;;
20894;SDS011;10607;42.066;24.742;2022-12-29T11:42:06;33.50;;;18.63;;
20894;SDS011;10607;42.066;24.742;2022-12-29T11:44:37;32.40;;;16.83;;
20894;SDS011;10607;42.066;24.742;2022-12-29T11:47:07;29.40;;;17.58;;
20894;SDS011;10607;42.066;24.742;2022-12-29T11:49:34;30.23;;;18.35;;
20894;SDS011;10607;42.066;24.742;2022-12-29T11:51:59;26.95;;;19.35;;
20894;SDS011;10607;42.066;24.742;2022-12-29T11:54:26;29.67;;;18.00;;
20894;SDS011;10607;42.066;24.742;2022-12-29T11:56:52;39.13;;;21.63;;
20894;SDS011;10607;42.066;24.742;2022-12-29T12:00:00;32.85;;;19.55;;
20894;SDS011;10607;42.066;24.742;2022-12-29T12:04:38;29.65;;;18.45;;
20894;SDS011;10607;42.066;24.742;2022-12-29T12:09:33;34.13;;;19.45;;
20894;SDS011;10607;42.066;24.742;2022-12-29T12:11:59;38.10;;;22.95;;
20894;SDS011;10607;42.066;24.742;2022-12-29T12:14:27;133.63;;;61.30;;
20894;SDS011;10607;42.066;24.742;2022-12-29T12:16:55;53.42;;;30.17;;
20894;SDS011;10607;42.066;24.742;2022-12-29T12:19:41;34.70;;;20.77;;
20894;SDS011;10607;42.066;24.742;2022-12-29T12:24:49;35.47;;;22.00;;
20894;SDS011;10607;42.066;24.742;2022-12-29T12:27:24;34.28;;;19.67;;
20894;SDS011;10607;42.066;24.742;2022-12-29T12:32:32;35.85;;;24.08;;
20894;SDS011;10607;42.066;24.742;2022-12-29T12:34:59;33.75;;;20.25;;
20894;SDS011;10607;42.066;24.742;2022-12-29T12:45:15;33.45;;;19.75;;
20894;SDS011;10607;42.066;24.742;2022-12-29T12:47:49;33.72;;;19.30;;
20894;SDS011;10607;42.066;24.742;2022-12-29T12:50:18;36.17;;;21.33;;
20894;SDS011;10607;42.066;24.742;2022-12-29T13:01:05;40.38;;;20.58;;
20894;SDS011;10607;42.066;24.742;2022-12-29T13:06:12;41.85;;;21.92;;
20894;SDS011;10607;42.066;24.742;2022-12-29T13:11:16;44.67;;;21.75;;
20894;SDS011;10607;42.066;24.742;2022-12-29T13:21:30;58.00;;;26.85;;
20894;SDS011;10607;42.066;24.742;2022-12-29T13:24:01;37.90;;;22.23;;
20894;SDS011;10607;42.066;24.742;2022-12-29T13:26:35;41.90;;;20.70;;
20894;SDS011;10607;42.066;24.742;2022-12-29T13:31:43;38.85;;;21.55;;
20894;SDS011;10607;42.066;24.742;2022-12-29T13:37:04;40.78;;;22.70;;
20894;SDS011;10607;42.066;24.742;2022-12-29T13:39:39;44.65;;;23.83;;
20894;SDS011;10607;42.066;24.742;2022-12-29T13:42:07;34.38;;;21.40;;
20894;SDS011;10607;42.066;24.742;2022-12-29T13:44:40;49.03;;;23.95;;
20894;SDS011;10607;42.066;24.742;2022-12-29T13:47:18;55.45;;;29.13;;
20894;SDS011;10607;42.066;24.742;2022-12-29T13:49:45;59.58;;;31.13;;
20894;SDS011;10607;42.066;24.742;2022-12-29T14:00:12;39.38;;;24.70;;
20894;SDS011;10607;42.066;24.742;2022-12-29T14:02:46;50.72;;;29.35;;
20894;SDS011;10607;42.066;24.742;2022-12-29T14:07:42;54.85;;;27.50;;
20894;SDS011;10607;42.066;24.742;2022-12-29T14:10:24;50.60;;;26.55;;
20894;SDS011;10607;42.066;24.742;2022-12-29T14:12:50;55.63;;;32.42;;
20894;SDS011;10607;42.066;24.742;2022-12-29T14:15:21;56.75;;;32.38;;
20894;SDS011;10607;42.066;24.742;2022-12-29T14:17:59;63.85;;;36.17;;
20894;SDS011;10607;42.066;24.742;2022-12-29T14:20:26;62.42;;;32.45;;
20894;SDS011;10607;42.066;24.742;2022-12-29T14:23:14;51.85;;;28.15;;
20894;SDS011;10607;42.066;24.742;2022-12-29T14:25:59;60.63;;;31.45;;
20894;SDS011;10607;42.066;24.742;2022-12-29T14:28:28;49.47;;;26.23;;
20894;SDS011;10607;42.066;24.742;2022-12-29T14:30:58;43.05;;;24.88;;
20894;SDS011;10607;42.066;24.742;2022-12-29T14:33:24;43.88;;;25.08;;
20894;SDS011;10607;42.066;24.742;2022-12-29T14:35:52;45.05;;;23.83;;
20894;SDS011;10607;42.066;24.742;2022-12-29T14:38:18;50.65;;;25.00;;
20894;SDS011;10607;42.066;24.742;2022-12-29T14:40:45;44.08;;;22.70;;
20894;SDS011;10607;42.066;24.742;2022-12-29T14:43:11;39.45;;;23.83;;
20894;SDS011;10607;42.066;24.742;2022-12-29T14:45:38;47.10;;;23.63;;
20894;SDS011;10607;42.066;24.742;2022-12-29T14:48:20;43.35;;;23.48;;
20894;SDS011;10607;42.066;24.742;2022-12-29T14:50:46;46.05;;;25.08;;
20894;SDS011;10607;42.066;24.742;2022-12-29T14:55:56;51.47;;;23.10;;
20894;SDS011;10607;42.066;24.742;2022-12-29T14:58:26;43.53;;;24.67;;
20894;SDS011;10607;42.066;24.742;2022-12-29T15:00:52;46.63;;;22.90;;
20894;SDS011;10607;42.066;24.742;2022-12-29T15:05:44;47.80;;;22.70;;
20894;SDS011;10607;42.066;24.742;2022-12-29T15:08:11;45.50;;;24.10;;
20894;SDS011;10607;42.066;24.742;2022-12-29T15:10:42;39.77;;;23.30;;
20894;SDS011;10607;42.066;24.742;2022-12-29T15:13:16;41.10;;;23.53;;
20894;SDS011;10607;42.066;24.742;2022-12-29T15:15:41;41.87;;;22.13;;
20894;SDS011;10607;42.066;24.742;2022-12-29T15:18:22;39.83;;;21.00;;
20894;SDS011;10607;42.066;24.742;2022-12-29T15:20:50;41.30;;;22.33;;
20894;SDS011;10607;42.066;24.742;2022-12-29T15:23:16;38.40;;;21.53;;
20894;SDS011;10607;42.066;24.742;2022-12-29T15:25:50;47.93;;;21.57;;
20894;SDS011;10607;42.066;24.742;2022-12-29T15:28:16;42.97;;;23.47;;
20894;SDS011;10607;42.066;24.742;2022-12-29T15:30:55;41.27;;;22.33;;
20894;SDS011;10607;42.066;24.742;2022-12-29T15:33:21;44.63;;;21.50;;
20894;SDS011;10607;42.066;24.742;2022-12-29T15:35:49;37.73;;;23.13;;
20894;SDS011;10607;42.066;24.742;2022-12-29T15:38:36;39.10;;;21.77;;
20894;SDS011;10607;42.066;24.742;2022-12-29T15:41:04;36.10;;;21.90;;
20894;SDS011;10607;42.066;24.742;2022-12-29T15:43:33;37.50;;;20.60;;
20894;SDS011;10607;42.066;24.742;2022-12-29T15:46:00;31.93;;;19.50;;
20894;SDS011;10607;42.066;24.742;2022-12-29T15:48:25;35.03;;;20.47;;
20894;SDS011;10607;42.066;24.742;2022-12-29T15:50:51;34.50;;;21.77;;
20894;SDS011;10607;42.066;24.742;2022-12-29T15:53:21;35.37;;;20.10;;
20894;SDS011;10607;42.066;24.742;2022-12-29T15:55:51;37.40;;;22.40;;
20894;SDS011;10607;42.066;24.742;2022-12-29T15:58:21;42.80;;;21.20;;
20894;SDS011;10607;42.066;24.742;2022-12-29T16:00:47;42.93;;;22.27;;
20894;SDS011;10607;42.066;24.742;2022-12-29T16:03:13;39.10;;;22.13;;
20894;SDS011;10607;42.066;24.742;2022-12-29T16:05:40;39.40;;;20.60;;
20894;SDS011;10607;42.066;24.742;2022-12-29T16:10:49;36.47;;;21.20;;